sensor_id;sensor_type;location;lat;lon;timestamp;P1;durP1;ratioP1;P2;durP2;ratioP2
1276;SDS011;631;51.024;13.826;2023-04-01T00:01:25;11.23;;;10.70;;
1276;SDS011;631;51.024;13.826;2023-04-01T00:03:52;10.67;;;10.27;;
1276;SDS011;631;51.024;13.826;2023-04-01T00:06:18;11.63;;;10.93;;
1276;SDS011;631;51.024;13.826;2023-04-01T00:08:44;11.03;;;10.53;;
1276;SDS011;631;51.024;13.826;2023-04-01T00:11:11;11.27;;;10.73;;
1276;SDS011;631;51.024;13.826;2023-04-01T00:13:37;11.70;;;11.20;;
1276;SDS011;631;51.024;13.826;2023-04-01T00:16:02;12.03;;;11.43;;
1276;SDS011;631;51.024;13.826;2023-04-01T00:18:29;11.23;;;10.67;;
1276;SDS011;631;51.024;13.826;2023-04-01T00:20:55;11.40;;;10.90;;
1276;SDS011;631;51.024;13.826;2023-04-01T00:23:20;11.57;;;11.07;;
1276;SDS011;631;51.024;13.826;2023-04-01T00:25:46;12.83;;;11.90;;
1276;SDS011;631;51.024;13.826;2023-04-01T00:28:13;11.67;;;10.90;;
1276;SDS011;631;51.024;13.826;2023-04-01T00:30:40;10.83;;;10.23;;
1276;SDS011;631;51.024;13.826;2023-04-01T00:33:05;12.17;;;11.37;;
1276;SDS011;631;51.024;13.826;2023-04-01T00:35:31;11.50;;;10.80;;
1276;SDS011;631;51.024;13.826;2023-04-01T00:37:57;11.50;;;11.00;;
1276;SDS011;631;51.024;13.826;2023-04-01T00:40:28;11.10;;;10.60;;
1276;SDS011;631;51.024;13.826;2023-04-01T00:42:56;11.80;;;11.10;;
1276;SDS011;631;51.024;13.826;2023-04-01T00:45:24;11.27;;;10.77;;
1276;SDS011;631;51.024;13.826;2023-04-01T00:47:50;11.20;;;10.60;;
1276;SDS011;631;51.024;13.826;2023-04-01T00:50:16;11.13;;;10.53;;
1276;SDS011;631;51.024;13.826;2023-04-01T00:52:41;11.50;;;10.90;;
1276;SDS011;631;51.024;13.826;2023-04-01T00:55:07;11.40;;;10.80;;
1276;SDS011;631;51.024;13.826;2023-04-01T00:57:36;10.30;;;9.90;;
1276;SDS011;631;51.024;13.826;2023-04-01T01:00:04;11.10;;;10.50;;
1276;SDS011;631;51.024;13.826;2023-04-01T01:02:32;11.73;;;11.00;;
1276;SDS011;631;51.024;13.826;2023-04-01T01:04:59;10.80;;;10.30;;
1276;SDS011;631;51.024;13.826;2023-04-01T01:15:26;11.00;;;10.50;;
1276;SDS011;631;51.024;13.826;2023-04-01T01:34:46;10.20;;;9.70;;
1276;SDS011;631;51.024;13.826;2023-04-01T01:37:17;10.90;;;10.50;;
1276;SDS011;631;51.024;13.826;2023-04-01T01:39:48;10.70;;;10.30;;
1276;SDS011;631;51.024;13.826;2023-04-01T01:42:19;10.33;;;9.83;;
1276;SDS011;631;51.024;13.826;2023-04-01T01:44:47;10.33;;;9.93;;
1276;SDS011;631;51.024;13.826;2023-04-01T01:47:14;10.70;;;10.20;;
1276;SDS011;631;51.024;13.826;2023-04-01T01:49:41;10.60;;;10.10;;
1276;SDS011;631;51.024;13.826;2023-04-01T01:52:10;10.80;;;10.30;;
1276;SDS011;631;51.024;13.826;2023-04-01T01:54:36;11.03;;;10.50;;
1276;SDS011;631;51.024;13.826;2023-04-01T01:57:11;10.60;;;10.20;;
1276;SDS011;631;51.024;13.826;2023-04-01T01:59:37;9.33;;;8.93;;
1276;SDS011;631;51.024;13.826;2023-04-01T02:02:05;11.17;;;10.57;;
1276;SDS011;631;51.024;13.826;2023-04-01T02:04:37;11.00;;;10.50;;
1276;SDS011;631;51.024;13.826;2023-04-01T02:07:10;11.07;;;10.47;;
1276;SDS011;631;51.024;13.826;2023-04-01T02:09:40;11.10;;;10.40;;
1276;SDS011;631;51.024;13.826;2023-04-01T02:12:08;10.80;;;10.30;;
1276;SDS011;631;51.024;13.826;2023-04-01T02:14:45;10.80;;;10.30;;
1276;SDS011;631;51.024;13.826;2023-04-01T02:17:26;10.90;;;10.30;;
1276;SDS011;631;51.024;13.826;2023-04-01T02:20:02;10.90;;;10.50;;
1276;SDS011;631;51.024;13.826;2023-04-01T02:22:41;11.13;;;10.33;;
1276;SDS011;631;51.024;13.826;2023-04-01T02:25:12;11.67;;;11.07;;
1276;SDS011;631;51.024;13.826;2023-04-01T02:27:40;11.23;;;10.70;;
1276;SDS011;631;51.024;13.826;2023-04-01T02:30:09;10.83;;;10.33;;
1276;SDS011;631;51.024;13.826;2023-04-01T02:32:36;11.07;;;10.50;;
1276;SDS011;631;51.024;13.826;2023-04-01T02:35:05;10.57;;;9.97;;
1276;SDS011;631;51.024;13.826;2023-04-01T02:37:33;11.23;;;10.53;;
1276;SDS011;631;51.024;13.826;2023-04-01T02:40:00;10.60;;;10.20;;
1276;SDS011;631;51.024;13.826;2023-04-01T02:42:27;10.63;;;10.13;;
1276;SDS011;631;51.024;13.826;2023-04-01T02:44:52;10.97;;;10.37;;
1276;SDS011;631;51.024;13.826;2023-04-01T02:47:18;10.97;;;10.47;;
1276;SDS011;631;51.024;13.826;2023-04-01T02:49:44;11.17;;;10.67;;
1276;SDS011;631;51.024;13.826;2023-04-01T02:52:09;11.40;;;10.80;;
1276;SDS011;631;51.024;13.826;2023-04-01T02:54:35;11.17;;;10.67;;
1276;SDS011;631;51.024;13.826;2023-04-01T02:57:00;11.30;;;10.80;;
1276;SDS011;631;51.024;13.826;2023-04-01T02:59:28;10.83;;;10.13;;
1276;SDS011;631;51.024;13.826;2023-04-01T03:01:54;11.10;;;10.60;;
1276;SDS011;631;51.024;13.826;2023-04-01T03:04:20;11.30;;;10.60;;
1276;SDS011;631;51.024;13.826;2023-04-01T03:06:45;10.90;;;10.30;;
1276;SDS011;631;51.024;13.826;2023-04-01T03:09:11;11.27;;;10.67;;
1276;SDS011;631;51.024;13.826;2023-04-01T03:11:37;11.50;;;10.90;;
1276;SDS011;631;51.024;13.826;2023-04-01T03:14:02;11.50;;;10.90;;
1276;SDS011;631;51.024;13.826;2023-04-01T03:16:28;11.33;;;10.60;;
1276;SDS011;631;51.024;13.826;2023-04-01T03:18:53;11.50;;;10.90;;
1276;SDS011;631;51.024;13.826;2023-04-01T03:21:22;10.50;;;10.00;;
1276;SDS011;631;51.024;13.826;2023-04-01T03:23:48;11.03;;;10.43;;
1276;SDS011;631;51.024;13.826;2023-04-01T03:26:15;10.60;;;10.10;;
1276;SDS011;631;51.024;13.826;2023-04-01T03:28:42;10.57;;;10.07;;
1276;SDS011;631;51.024;13.826;2023-04-01T03:31:08;10.83;;;10.33;;
1276;SDS011;631;51.024;13.826;2023-04-01T03:33:33;11.50;;;10.80;;
1276;SDS011;631;51.024;13.826;2023-04-01T03:35:59;10.50;;;10.00;;
1276;SDS011;631;51.024;13.826;2023-04-01T03:38:25;10.80;;;10.20;;
1276;SDS011;631;51.024;13.826;2023-04-01T03:40:51;10.67;;;10.10;;
1276;SDS011;631;51.024;13.826;2023-04-01T03:43:16;11.23;;;10.63;;
1276;SDS011;631;51.024;13.826;2023-04-01T03:45:46;11.13;;;10.50;;
1276;SDS011;631;51.024;13.826;2023-04-01T03:48:12;10.97;;;10.47;;
1276;SDS011;631;51.024;13.826;2023-04-01T03:50:39;10.73;;;10.03;;
1276;SDS011;631;51.024;13.826;2023-04-01T03:53:05;10.77;;;10.27;;
1276;SDS011;631;51.024;13.826;2023-04-01T03:55:31;10.20;;;9.80;;
1276;SDS011;631;51.024;13.826;2023-04-01T03:57:56;10.43;;;10.03;;
1276;SDS011;631;51.024;13.826;2023-04-01T04:00:22;10.97;;;10.47;;
1276;SDS011;631;51.024;13.826;2023-04-01T04:02:48;11.20;;;10.60;;
1276;SDS011;631;51.024;13.826;2023-04-01T04:05:13;10.87;;;10.27;;
1276;SDS011;631;51.024;13.826;2023-04-01T04:07:39;10.70;;;10.30;;
1276;SDS011;631;51.024;13.826;2023-04-01T04:10:05;10.43;;;9.90;;
1276;SDS011;631;51.024;13.826;2023-04-01T04:12:31;10.80;;;10.10;;
1276;SDS011;631;51.024;13.826;2023-04-01T04:14:57;10.20;;;9.80;;
1276;SDS011;631;51.024;13.826;2023-04-01T04:17:23;10.57;;;10.07;;
1276;SDS011;631;51.024;13.826;2023-04-01T04:19:48;11.57;;;10.87;;
1276;SDS011;631;51.024;13.826;2023-04-01T04:22:14;10.33;;;9.73;;
1276;SDS011;631;51.024;13.826;2023-04-01T04:24:40;10.87;;;10.37;;
1276;SDS011;631;51.024;13.826;2023-04-01T04:27:05;10.97;;;10.47;;
1276;SDS011;631;51.024;13.826;2023-04-01T04:29:31;9.67;;;9.17;;
1276;SDS011;631;51.024;13.826;2023-04-01T04:31:57;11.03;;;10.43;;
1276;SDS011;631;51.024;13.826;2023-04-01T04:34:22;11.17;;;10.60;;
1276;SDS011;631;51.024;13.826;2023-04-01T04:36:48;10.20;;;9.80;;
1276;SDS011;631;51.024;13.826;2023-04-01T04:39:14;11.00;;;10.50;;
1276;SDS011;631;51.024;13.826;2023-04-01T04:41:40;11.70;;;11.00;;
1276;SDS011;631;51.024;13.826;2023-04-01T04:44:06;11.53;;;10.93;;
1276;SDS011;631;51.024;13.826;2023-04-01T04:46:32;11.60;;;11.00;;
1276;SDS011;631;51.024;13.826;2023-04-01T04:48:57;11.50;;;10.90;;
1276;SDS011;631;51.024;13.826;2023-04-01T04:51:23;11.33;;;10.63;;
1276;SDS011;631;51.024;13.826;2023-04-01T04:53:49;10.97;;;10.47;;
1276;SDS011;631;51.024;13.826;2023-04-01T04:56:22;11.07;;;10.57;;
1276;SDS011;631;51.024;13.826;2023-04-01T04:58:50;11.60;;;11.00;;
1276;SDS011;631;51.024;13.826;2023-04-01T05:01:16;11.43;;;10.83;;
1276;SDS011;631;51.024;13.826;2023-04-01T05:03:42;11.40;;;10.73;;
1276;SDS011;631;51.024;13.826;2023-04-01T05:06:09;10.30;;;9.90;;
1276;SDS011;631;51.024;13.826;2023-04-01T05:08:36;10.67;;;10.17;;
1276;SDS011;631;51.024;13.826;2023-04-01T05:11:06;11.17;;;10.67;;
1276;SDS011;631;51.024;13.826;2023-04-01T05:13:34;11.17;;;10.50;;
1276;SDS011;631;51.024;13.826;2023-04-01T05:16:00;10.93;;;10.47;;
1276;SDS011;631;51.024;13.826;2023-04-01T05:18:26;11.33;;;10.70;;
1276;SDS011;631;51.024;13.826;2023-04-01T05:20:52;10.90;;;10.40;;
1276;SDS011;631;51.024;13.826;2023-04-01T05:23:19;10.90;;;10.40;;
1276;SDS011;631;51.024;13.826;2023-04-01T05:25:46;10.47;;;9.87;;
1276;SDS011;631;51.024;13.826;2023-04-01T05:28:13;10.67;;;10.03;;
1276;SDS011;631;51.024;13.826;2023-04-01T05:30:42;10.97;;;10.37;;
1276;SDS011;631;51.024;13.826;2023-04-01T05:33:09;10.67;;;10.27;;
1276;SDS011;631;51.024;13.826;2023-04-01T05:35:35;10.47;;;9.80;;
1276;SDS011;631;51.024;13.826;2023-04-01T05:38:01;10.83;;;10.23;;
1276;SDS011;631;51.024;13.826;2023-04-01T05:40:28;11.07;;;10.47;;
1276;SDS011;631;51.024;13.826;2023-04-01T05:42:54;10.90;;;10.40;;
1276;SDS011;631;51.024;13.826;2023-04-01T05:45:20;11.03;;;10.53;;
1276;SDS011;631;51.024;13.826;2023-04-01T05:47:46;10.73;;;10.13;;
1276;SDS011;631;51.024;13.826;2023-04-01T05:50:11;10.67;;;10.10;;
1276;SDS011;631;51.024;13.826;2023-04-01T05:52:37;10.50;;;10.00;;
1276;SDS011;631;51.024;13.826;2023-04-01T05:55:03;10.47;;;9.90;;
1276;SDS011;631;51.024;13.826;2023-04-01T05:57:30;11.10;;;10.50;;
1276;SDS011;631;51.024;13.826;2023-04-01T05:59:56;10.50;;;9.90;;
1276;SDS011;631;51.024;13.826;2023-04-01T06:02:22;10.80;;;10.20;;
1276;SDS011;631;51.024;13.826;2023-04-01T06:04:48;10.80;;;10.30;;
1276;SDS011;631;51.024;13.826;2023-04-01T06:07:15;10.03;;;9.37;;
1276;SDS011;631;51.024;13.826;2023-04-01T06:09:42;10.50;;;10.00;;
1276;SDS011;631;51.024;13.826;2023-04-01T06:15:06;11.13;;;10.53;;
1276;SDS011;631;51.024;13.826;2023-04-01T06:29:01;13.30;;;12.60;;
1276;SDS011;631;51.024;13.826;2023-04-01T06:40:52;12.97;;;12.27;;
1276;SDS011;631;51.024;13.826;2023-04-01T06:52:18;11.27;;;10.67;;
1276;SDS011;631;51.024;13.826;2023-04-01T06:54:53;10.80;;;10.20;;
1276;SDS011;631;51.024;13.826;2023-04-01T07:00:27;10.47;;;9.97;;
1276;SDS011;631;51.024;13.826;2023-04-01T07:03:00;10.37;;;9.87;;
1276;SDS011;631;51.024;13.826;2023-04-01T07:05:31;10.80;;;10.30;;
1276;SDS011;631;51.024;13.826;2023-04-01T07:07:59;10.23;;;9.63;;
1276;SDS011;631;51.024;13.826;2023-04-01T07:10:47;10.60;;;10.10;;
1276;SDS011;631;51.024;13.826;2023-04-01T07:13:30;10.37;;;9.90;;
1276;SDS011;631;51.024;13.826;2023-04-01T07:19:03;10.17;;;9.67;;
1276;SDS011;631;51.024;13.826;2023-04-01T07:21:47;10.07;;;9.47;;
1276;SDS011;631;51.024;13.826;2023-04-01T07:24:25;9.33;;;8.83;;
1276;SDS011;631;51.024;13.826;2023-04-01T07:26:55;9.93;;;9.47;;
1276;SDS011;631;51.024;13.826;2023-04-01T07:29:22;9.93;;;9.43;;
1276;SDS011;631;51.024;13.826;2023-04-01T07:31:58;10.97;;;10.13;;
1276;SDS011;631;51.024;13.826;2023-04-01T07:45:49;9.63;;;9.23;;
1276;SDS011;631;51.024;13.826;2023-04-01T07:51:13;9.90;;;9.50;;
1276;SDS011;631;51.024;13.826;2023-04-01T07:56:51;10.47;;;9.87;;
1276;SDS011;631;51.024;13.826;2023-04-01T08:05:01;10.00;;;9.50;;
1276;SDS011;631;51.024;13.826;2023-04-01T08:16:06;10.43;;;9.93;;
1276;SDS011;631;51.024;13.826;2023-04-01T08:18:47;9.20;;;8.80;;
1276;SDS011;631;51.024;13.826;2023-04-01T08:21:23;9.57;;;8.97;;
1276;SDS011;631;51.024;13.826;2023-04-01T08:24:00;9.93;;;9.53;;
1276;SDS011;631;51.024;13.826;2023-04-01T08:26:45;9.77;;;9.37;;
1276;SDS011;631;51.024;13.826;2023-04-01T08:29:16;10.03;;;9.43;;
1276;SDS011;631;51.024;13.826;2023-04-01T08:31:56;10.10;;;9.60;;
1276;SDS011;631;51.024;13.826;2023-04-01T08:34:30;10.50;;;10.10;;
1276;SDS011;631;51.024;13.826;2023-04-01T08:37:01;9.43;;;9.07;;
1276;SDS011;631;51.024;13.826;2023-04-01T08:39:36;9.67;;;9.17;;
1276;SDS011;631;51.024;13.826;2023-04-01T08:42:24;9.27;;;8.60;;
1276;SDS011;631;51.024;13.826;2023-04-01T08:47:42;9.27;;;8.97;;
1276;SDS011;631;51.024;13.826;2023-04-01T08:56:13;9.57;;;9.17;;
1276;SDS011;631;51.024;13.826;2023-04-01T09:31:43;8.97;;;8.57;;
1276;SDS011;631;51.024;13.826;2023-04-01T09:48:16;9.03;;;8.63;;
1276;SDS011;631;51.024;13.826;2023-04-01T10:26:08;9.03;;;8.63;;
1276;SDS011;631;51.024;13.826;2023-04-01T10:29:02;10.40;;;9.90;;
1276;SDS011;631;51.024;13.826;2023-04-01T10:31:42;8.53;;;8.13;;
1276;SDS011;631;51.024;13.826;2023-04-01T10:46:02;9.40;;;9.00;;
1276;SDS011;631;51.024;13.826;2023-04-01T11:07:48;9.23;;;8.83;;
1276;SDS011;631;51.024;13.826;2023-04-01T11:24:24;9.50;;;9.00;;
1276;SDS011;631;51.024;13.826;2023-04-01T11:29:48;9.20;;;8.90;;
1276;SDS011;631;51.024;13.826;2023-04-01T11:40:54;9.30;;;8.80;;
1276;SDS011;631;51.024;13.826;2023-04-01T11:43:46;8.70;;;8.30;;
1276;SDS011;631;51.024;13.826;2023-04-01T11:46:33;9.57;;;9.13;;
1276;SDS011;631;51.024;13.826;2023-04-01T11:49:54;8.67;;;8.27;;
1276;SDS011;631;51.024;13.826;2023-04-01T11:57:41;9.70;;;9.30;;
1276;SDS011;631;51.024;13.826;2023-04-01T12:00:27;9.30;;;8.90;;
1276;SDS011;631;51.024;13.826;2023-04-01T12:06:11;9.10;;;8.70;;
1276;SDS011;631;51.024;13.826;2023-04-01T12:09:03;9.20;;;8.90;;
1276;SDS011;631;51.024;13.826;2023-04-01T12:12:10;8.37;;;8.00;;
1276;SDS011;631;51.024;13.826;2023-04-01T12:20:20;8.40;;;8.07;;
1276;SDS011;631;51.024;13.826;2023-04-01T12:23:06;9.17;;;8.67;;
1276;SDS011;631;51.024;13.826;2023-04-01T12:28:49;8.87;;;8.57;;
1276;SDS011;631;51.024;13.826;2023-04-01T12:33:59;8.23;;;7.93;;
1276;SDS011;631;51.024;13.826;2023-04-01T12:55:59;10.30;;;9.80;;
1276;SDS011;631;51.024;13.826;2023-04-01T13:03:54;9.93;;;9.53;;
1276;SDS011;631;51.024;13.826;2023-04-01T13:09:53;10.80;;;10.20;;
1276;SDS011;631;51.024;13.826;2023-04-01T13:25:54;10.90;;;10.50;;
1276;SDS011;631;51.024;13.826;2023-04-01T13:28:25;11.17;;;10.60;;
1276;SDS011;631;51.024;13.826;2023-04-01T13:43:07;10.40;;;10.00;;
1276;SDS011;631;51.024;13.826;2023-04-01T14:08:46;10.23;;;9.83;;
1276;SDS011;631;51.024;13.826;2023-04-01T14:34:34;10.93;;;10.53;;
1276;SDS011;631;51.024;13.826;2023-04-01T14:51:21;12.87;;;12.27;;
1276;SDS011;631;51.024;13.826;2023-04-01T14:54:02;11.80;;;11.30;;
1276;SDS011;631;51.024;13.826;2023-04-01T14:56:38;12.20;;;11.70;;
1276;SDS011;631;51.024;13.826;2023-04-01T14:59:10;12.40;;;11.90;;
1276;SDS011;631;51.024;13.826;2023-04-01T15:07:19;11.27;;;10.77;;
1276;SDS011;631;51.024;13.826;2023-04-01T15:29:32;9.63;;;9.10;;
1276;SDS011;631;51.024;13.826;2023-04-01T15:32:02;10.50;;;10.10;;
1276;SDS011;631;51.024;13.826;2023-04-01T15:38:11;9.60;;;9.30;;
1276;SDS011;631;51.024;13.826;2023-04-01T15:41:02;10.00;;;9.60;;
1276;SDS011;631;51.024;13.826;2023-04-01T15:43:47;9.50;;;9.17;;
1276;SDS011;631;51.024;13.826;2023-04-01T15:57:24;10.37;;;9.97;;
1276;SDS011;631;51.024;13.826;2023-04-01T16:11:29;9.30;;;9.00;;
1276;SDS011;631;51.024;13.826;2023-04-01T16:17:05;10.87;;;10.47;;
1276;SDS011;631;51.024;13.826;2023-04-01T16:19:50;10.97;;;10.57;;
1276;SDS011;631;51.024;13.826;2023-04-01T16:23:18;11.00;;;10.60;;
1276;SDS011;631;51.024;13.826;2023-04-01T16:30:47;10.57;;;10.07;;
1276;SDS011;631;51.024;13.826;2023-04-01T16:33:30;11.40;;;10.90;;
1276;SDS011;631;51.024;13.826;2023-04-01T16:41:19;9.20;;;8.80;;
1276;SDS011;631;51.024;13.826;2023-04-01T16:49:46;10.50;;;10.00;;
1276;SDS011;631;51.024;13.826;2023-04-01T16:58:06;10.77;;;10.37;;
1276;SDS011;631;51.024;13.826;2023-04-01T17:00:39;11.27;;;10.67;;
1276;SDS011;631;51.024;13.826;2023-04-01T17:03:13;10.40;;;10.00;;
1276;SDS011;631;51.024;13.826;2023-04-01T17:05:52;10.20;;;9.80;;
1276;SDS011;631;51.024;13.826;2023-04-01T17:19:14;10.43;;;10.03;;
1276;SDS011;631;51.024;13.826;2023-04-01T17:22:10;11.17;;;10.67;;
1276;SDS011;631;51.024;13.826;2023-04-01T17:24:41;12.57;;;11.97;;
1276;SDS011;631;51.024;13.826;2023-04-01T17:27:33;15.40;;;14.60;;
1276;SDS011;631;51.024;13.826;2023-04-01T17:54:53;14.50;;;13.80;;
1276;SDS011;631;51.024;13.826;2023-04-01T18:06:18;14.60;;;13.80;;
1276;SDS011;631;51.024;13.826;2023-04-01T18:22:15;22.53;;;20.43;;
1276;SDS011;631;51.024;13.826;2023-04-01T18:25:01;20.90;;;19.00;;
1276;SDS011;631;51.024;13.826;2023-04-01T18:27:38;19.10;;;17.60;;
1276;SDS011;631;51.024;13.826;2023-04-01T18:30:18;16.87;;;15.67;;
1276;SDS011;631;51.024;13.826;2023-04-01T18:35:17;19.53;;;18.07;;
1276;SDS011;631;51.024;13.826;2023-04-01T18:38:36;18.03;;;16.83;;
1276;SDS011;631;51.024;13.826;2023-04-01T18:41:25;19.13;;;17.83;;
1276;SDS011;631;51.024;13.826;2023-04-01T18:49:55;22.13;;;20.50;;
1276;SDS011;631;51.024;13.826;2023-04-01T18:52:17;22.13;;;20.63;;
1276;SDS011;631;51.024;13.826;2023-04-01T18:54:51;22.50;;;20.77;;
1276;SDS011;631;51.024;13.826;2023-04-01T18:57:38;25.07;;;23.07;;
1276;SDS011;631;51.024;13.826;2023-04-01T19:00:08;25.20;;;23.40;;
1276;SDS011;631;51.024;13.826;2023-04-01T19:02:46;25.07;;;23.17;;
1276;SDS011;631;51.024;13.826;2023-04-01T19:05:29;23.07;;;21.30;;
1276;SDS011;631;51.024;13.826;2023-04-01T19:16:59;18.27;;;17.07;;
1276;SDS011;631;51.024;13.826;2023-04-01T19:24:59;18.10;;;16.90;;
1276;SDS011;631;51.024;13.826;2023-04-01T19:38:40;21.20;;;19.70;;
1276;SDS011;631;51.024;13.826;2023-04-01T19:41:22;20.70;;;19.27;;
1276;SDS011;631;51.024;13.826;2023-04-01T19:44:12;22.37;;;20.87;;
1276;SDS011;631;51.024;13.826;2023-04-01T20:16:35;25.37;;;23.57;;
1276;SDS011;631;51.024;13.826;2023-04-01T20:19:07;21.70;;;19.83;;
1276;SDS011;631;51.024;13.826;2023-04-01T20:21:40;22.00;;;20.30;;
1276;SDS011;631;51.024;13.826;2023-04-01T20:26:50;21.90;;;20.20;;
1276;SDS011;631;51.024;13.826;2023-04-01T20:29:40;18.67;;;17.30;;
1276;SDS011;631;51.024;13.826;2023-04-01T20:34:58;16.73;;;15.53;;
1276;SDS011;631;51.024;13.826;2023-04-01T20:37:44;17.57;;;16.47;;
1276;SDS011;631;51.024;13.826;2023-04-01T20:51:24;19.33;;;18.00;;
1276;SDS011;631;51.024;13.826;2023-04-01T20:54:25;19.87;;;18.47;;
1276;SDS011;631;51.024;13.826;2023-04-01T21:00:11;19.40;;;18.10;;
1276;SDS011;631;51.024;13.826;2023-04-01T21:12:06;19.17;;;17.87;;
1276;SDS011;631;51.024;13.826;2023-04-01T21:17:28;19.73;;;18.37;;
1276;SDS011;631;51.024;13.826;2023-04-01T21:42:41;20.43;;;18.93;;
1276;SDS011;631;51.024;13.826;2023-04-01T22:04:53;19.90;;;18.60;;
1276;SDS011;631;51.024;13.826;2023-04-01T22:07:25;21.37;;;19.87;;
1276;SDS011;631;51.024;13.826;2023-04-01T22:12:35;21.50;;;19.87;;
1276;SDS011;631;51.024;13.826;2023-04-01T22:15:40;20.83;;;19.43;;
1276;SDS011;631;51.024;13.826;2023-04-01T22:21:24;19.83;;;18.53;;
1276;SDS011;631;51.024;13.826;2023-04-01T22:27:07;14.30;;;13.40;;
1276;SDS011;631;51.024;13.826;2023-04-01T22:30:06;13.83;;;13.13;;
1276;SDS011;631;51.024;13.826;2023-04-01T22:32:40;13.70;;;12.90;;
1276;SDS011;631;51.024;13.826;2023-04-01T22:35:20;14.17;;;13.37;;
1276;SDS011;631;51.024;13.826;2023-04-01T22:38:10;13.40;;;12.70;;
1276;SDS011;631;51.024;13.826;2023-04-01T22:43:38;13.57;;;12.77;;
1276;SDS011;631;51.024;13.826;2023-04-01T22:49:15;14.10;;;13.10;;
1276;SDS011;631;51.024;13.826;2023-04-01T22:51:49;14.10;;;13.20;;
1276;SDS011;631;51.024;13.826;2023-04-01T22:54:24;13.80;;;12.90;;
1276;SDS011;631;51.024;13.826;2023-04-01T22:57:08;13.97;;;13.17;;
1276;SDS011;631;51.024;13.826;2023-04-01T23:00:12;14.10;;;13.20;;
1276;SDS011;631;51.024;13.826;2023-04-01T23:03:00;14.03;;;13.23;;
1276;SDS011;631;51.024;13.826;2023-04-01T23:05:58;13.67;;;12.80;;
1276;SDS011;631;51.024;13.826;2023-04-01T23:10:52;14.87;;;13.90;;
1276;SDS011;631;51.024;13.826;2023-04-01T23:16:20;15.17;;;14.07;;
1276;SDS011;631;51.024;13.826;2023-04-01T23:18:57;15.43;;;14.37;;
1276;SDS011;631;51.024;13.826;2023-04-01T23:21:41;15.83;;;14.70;;
1276;SDS011;631;51.024;13.826;2023-04-01T23:27:05;16.33;;;15.20;;
1276;SDS011;631;51.024;13.826;2023-04-01T23:29:37;17.87;;;16.57;;
1276;SDS011;631;51.024;13.826;2023-04-01T23:32:18;17.90;;;16.30;;
1276;SDS011;631;51.024;13.826;2023-04-01T23:34:51;17.33;;;16.03;;
1276;SDS011;631;51.024;13.826;2023-04-01T23:37:20;16.70;;;15.50;;
1276;SDS011;631;51.024;13.826;2023-04-01T23:39:48;16.53;;;15.33;;
1276;SDS011;631;51.024;13.826;2023-04-01T23:44:48;17.67;;;16.30;;
1276;SDS011;631;51.024;13.826;2023-04-01T23:47:49;17.10;;;15.70;;
1276;SDS011;631;51.024;13.826;2023-04-01T23:50:11;17.60;;;16.30;;
1276;SDS011;631;51.024;13.826;2023-04-01T23:52:57;17.20;;;15.90;;
1276;SDS011;631;51.024;13.826;2023-04-01T23:55:26;16.60;;;15.40;;
